sensor_id;sensor_type;location;lat;lon;timestamp;P1;durP1;ratioP1;P2;durP2;ratioP2
57313;SDS011;53202;50.976;18.216;2023-03-14T00:02:08;10.30;;;4.40;;
57313;SDS011;53202;50.976;18.216;2023-03-14T00:04:34;16.70;;;5.30;;
57313;SDS011;53202;50.976;18.216;2023-03-14T00:07:00;20.40;;;5.00;;
57313;SDS011;53202;50.976;18.216;2023-03-14T00:09:26;10.10;;;4.60;;
57313;SDS011;53202;50.976;18.216;2023-03-14T00:11:56;9.60;;;4.20;;
57313;SDS011;53202;50.976;18.216;2023-03-14T00:14:22;11.00;;;4.20;;
57313;SDS011;53202;50.976;18.216;2023-03-14T00:16:49;12.70;;;4.10;;
57313;SDS011;53202;50.976;18.216;2023-03-14T00:19:15;10.00;;;4.30;;
57313;SDS011;53202;50.976;18.216;2023-03-14T00:21:41;12.40;;;4.50;;
57313;SDS011;53202;50.976;18.216;2023-03-14T00:24:07;11.00;;;4.60;;
57313;SDS011;53202;50.976;18.216;2023-03-14T00:26:33;15.30;;;6.50;;
57313;SDS011;53202;50.976;18.216;2023-03-14T00:28:59;15.80;;;6.40;;
57313;SDS011;53202;50.976;18.216;2023-03-14T00:31:26;14.50;;;6.00;;
57313;SDS011;53202;50.976;18.216;2023-03-14T00:33:52;11.80;;;6.10;;
57313;SDS011;53202;50.976;18.216;2023-03-14T00:36:19;9.80;;;5.00;;
57313;SDS011;53202;50.976;18.216;2023-03-14T00:38:47;9.80;;;4.70;;
57313;SDS011;53202;50.976;18.216;2023-03-14T00:41:17;9.10;;;4.60;;
57313;SDS011;53202;50.976;18.216;2023-03-14T00:43:44;8.80;;;4.00;;
57313;SDS011;53202;50.976;18.216;2023-03-14T00:46:11;10.10;;;5.10;;
57313;SDS011;53202;50.976;18.216;2023-03-14T00:48:38;16.00;;;6.60;;
57313;SDS011;53202;50.976;18.216;2023-03-14T00:51:04;16.10;;;6.30;;
57313;SDS011;53202;50.976;18.216;2023-03-14T00:53:31;10.70;;;4.80;;
57313;SDS011;53202;50.976;18.216;2023-03-14T00:56:02;9.60;;;5.20;;
57313;SDS011;53202;50.976;18.216;2023-03-14T00:58:30;12.80;;;5.30;;
57313;SDS011;53202;50.976;18.216;2023-03-14T01:00:56;11.00;;;4.30;;
57313;SDS011;53202;50.976;18.216;2023-03-14T01:03:22;10.90;;;4.30;;
57313;SDS011;53202;50.976;18.216;2023-03-14T01:05:49;10.00;;;4.30;;
57313;SDS011;53202;50.976;18.216;2023-03-14T01:08:16;10.50;;;4.20;;
57313;SDS011;53202;50.976;18.216;2023-03-14T01:10:42;9.20;;;4.30;;
57313;SDS011;53202;50.976;18.216;2023-03-14T01:13:09;10.80;;;4.70;;
57313;SDS011;53202;50.976;18.216;2023-03-14T01:15:35;11.60;;;5.30;;
57313;SDS011;53202;50.976;18.216;2023-03-14T01:18:02;14.40;;;5.90;;
57313;SDS011;53202;50.976;18.216;2023-03-14T01:20:29;14.10;;;5.00;;
57313;SDS011;53202;50.976;18.216;2023-03-14T01:22:55;25.50;;;5.10;;
57313;SDS011;53202;50.976;18.216;2023-03-14T01:25:21;9.10;;;4.50;;
57313;SDS011;53202;50.976;18.216;2023-03-14T01:27:47;9.60;;;4.00;;
57313;SDS011;53202;50.976;18.216;2023-03-14T01:30:14;10.50;;;4.00;;
57313;SDS011;53202;50.976;18.216;2023-03-14T01:32:40;10.90;;;4.20;;
57313;SDS011;53202;50.976;18.216;2023-03-14T01:35:06;8.70;;;3.80;;
57313;SDS011;53202;50.976;18.216;2023-03-14T01:37:32;9.20;;;4.30;;
57313;SDS011;53202;50.976;18.216;2023-03-14T01:39:59;8.10;;;3.80;;
57313;SDS011;53202;50.976;18.216;2023-03-14T01:42:25;9.80;;;3.70;;
57313;SDS011;53202;50.976;18.216;2023-03-14T01:44:53;8.00;;;3.30;;
57313;SDS011;53202;50.976;18.216;2023-03-14T01:47:21;7.30;;;3.70;;
57313;SDS011;53202;50.976;18.216;2023-03-14T01:49:53;8.00;;;4.20;;
57313;SDS011;53202;50.976;18.216;2023-03-14T01:52:29;9.30;;;4.60;;
57313;SDS011;53202;50.976;18.216;2023-03-14T01:55:09;10.40;;;4.30;;
57313;SDS011;53202;50.976;18.216;2023-03-14T01:57:41;11.90;;;4.50;;
57313;SDS011;53202;50.976;18.216;2023-03-14T02:00:12;8.20;;;3.90;;
57313;SDS011;53202;50.976;18.216;2023-03-14T02:02:41;10.70;;;4.30;;
57313;SDS011;53202;50.976;18.216;2023-03-14T02:05:09;5.60;;;3.60;;
57313;SDS011;53202;50.976;18.216;2023-03-14T02:07:47;13.60;;;3.90;;
57313;SDS011;53202;50.976;18.216;2023-03-14T02:10:16;9.10;;;4.50;;
57313;SDS011;53202;50.976;18.216;2023-03-14T02:12:45;8.40;;;4.60;;
57313;SDS011;53202;50.976;18.216;2023-03-14T02:15:15;15.70;;;7.20;;
57313;SDS011;53202;50.976;18.216;2023-03-14T02:17:41;19.70;;;8.80;;
57313;SDS011;53202;50.976;18.216;2023-03-14T02:22:54;11.00;;;5.30;;
57313;SDS011;53202;50.976;18.216;2023-03-14T02:25:28;9.50;;;4.70;;
57313;SDS011;53202;50.976;18.216;2023-03-14T02:28:09;8.40;;;4.50;;
57313;SDS011;53202;50.976;18.216;2023-03-14T02:30:35;11.80;;;4.80;;
57313;SDS011;53202;50.976;18.216;2023-03-14T02:33:05;8.50;;;4.10;;
57313;SDS011;53202;50.976;18.216;2023-03-14T02:35:39;8.10;;;4.00;;
57313;SDS011;53202;50.976;18.216;2023-03-14T02:41:14;10.40;;;4.70;;
57313;SDS011;53202;50.976;18.216;2023-03-14T02:43:40;10.80;;;4.90;;
57313;SDS011;53202;50.976;18.216;2023-03-14T02:46:07;17.90;;;4.70;;
57313;SDS011;53202;50.976;18.216;2023-03-14T02:48:53;12.00;;;4.50;;
57313;SDS011;53202;50.976;18.216;2023-03-14T02:51:22;10.50;;;4.60;;
57313;SDS011;53202;50.976;18.216;2023-03-14T02:53:49;14.10;;;4.00;;
57313;SDS011;53202;50.976;18.216;2023-03-14T02:56:15;14.30;;;4.50;;
57313;SDS011;53202;50.976;18.216;2023-03-14T02:58:41;7.80;;;4.60;;
57313;SDS011;53202;50.976;18.216;2023-03-14T03:01:07;13.80;;;5.00;;
57313;SDS011;53202;50.976;18.216;2023-03-14T03:03:33;14.00;;;4.50;;
57313;SDS011;53202;50.976;18.216;2023-03-14T03:05:59;13.10;;;4.90;;
57313;SDS011;53202;50.976;18.216;2023-03-14T03:08:26;11.30;;;4.40;;
57313;SDS011;53202;50.976;18.216;2023-03-14T03:10:52;12.40;;;4.10;;
57313;SDS011;53202;50.976;18.216;2023-03-14T03:13:18;16.40;;;4.40;;
57313;SDS011;53202;50.976;18.216;2023-03-14T03:15:44;8.00;;;4.20;;
57313;SDS011;53202;50.976;18.216;2023-03-14T03:18:11;13.50;;;3.90;;
57313;SDS011;53202;50.976;18.216;2023-03-14T03:20:37;9.80;;;4.20;;
57313;SDS011;53202;50.976;18.216;2023-03-14T03:23:03;11.30;;;4.00;;
57313;SDS011;53202;50.976;18.216;2023-03-14T03:25:29;12.40;;;3.60;;
57313;SDS011;53202;50.976;18.216;2023-03-14T03:27:55;12.80;;;4.70;;
57313;SDS011;53202;50.976;18.216;2023-03-14T03:30:22;8.90;;;3.80;;
57313;SDS011;53202;50.976;18.216;2023-03-14T03:32:48;11.20;;;4.00;;
57313;SDS011;53202;50.976;18.216;2023-03-14T03:35:14;9.40;;;3.50;;
57313;SDS011;53202;50.976;18.216;2023-03-14T03:37:40;12.20;;;4.10;;
57313;SDS011;53202;50.976;18.216;2023-03-14T03:40:07;12.90;;;4.60;;
57313;SDS011;53202;50.976;18.216;2023-03-14T03:42:35;5.70;;;3.60;;
57313;SDS011;53202;50.976;18.216;2023-03-14T03:45:02;7.90;;;4.10;;
57313;SDS011;53202;50.976;18.216;2023-03-14T03:47:29;8.00;;;3.60;;
57313;SDS011;53202;50.976;18.216;2023-03-14T03:49:56;9.90;;;4.30;;
57313;SDS011;53202;50.976;18.216;2023-03-14T03:52:22;9.20;;;3.80;;
57313;SDS011;53202;50.976;18.216;2023-03-14T03:54:48;9.10;;;3.60;;
57313;SDS011;53202;50.976;18.216;2023-03-14T03:57:14;11.30;;;3.80;;
57313;SDS011;53202;50.976;18.216;2023-03-14T03:59:40;9.60;;;4.20;;
57313;SDS011;53202;50.976;18.216;2023-03-14T04:02:06;7.60;;;3.60;;
57313;SDS011;53202;50.976;18.216;2023-03-14T04:04:33;8.00;;;4.20;;
57313;SDS011;53202;50.976;18.216;2023-03-14T04:06:59;14.90;;;5.70;;
57313;SDS011;53202;50.976;18.216;2023-03-14T04:09:25;13.40;;;5.60;;
57313;SDS011;53202;50.976;18.216;2023-03-14T04:11:51;9.10;;;3.80;;
57313;SDS011;53202;50.976;18.216;2023-03-14T04:14:17;7.70;;;3.60;;
57313;SDS011;53202;50.976;18.216;2023-03-14T04:16:43;16.10;;;4.00;;
57313;SDS011;53202;50.976;18.216;2023-03-14T04:19:09;7.70;;;3.50;;
57313;SDS011;53202;50.976;18.216;2023-03-14T04:21:35;12.30;;;3.90;;
57313;SDS011;53202;50.976;18.216;2023-03-14T04:24:01;10.90;;;4.60;;
57313;SDS011;53202;50.976;18.216;2023-03-14T04:26:28;9.70;;;4.90;;
57313;SDS011;53202;50.976;18.216;2023-03-14T04:28:54;12.10;;;5.10;;
57313;SDS011;53202;50.976;18.216;2023-03-14T04:31:20;13.60;;;4.70;;
57313;SDS011;53202;50.976;18.216;2023-03-14T04:33:47;9.40;;;5.00;;
57313;SDS011;53202;50.976;18.216;2023-03-14T04:36:13;11.20;;;4.40;;
57313;SDS011;53202;50.976;18.216;2023-03-14T04:38:39;9.80;;;4.10;;
57313;SDS011;53202;50.976;18.216;2023-03-14T04:41:06;9.50;;;4.10;;
57313;SDS011;53202;50.976;18.216;2023-03-14T04:43:32;6.30;;;4.00;;
57313;SDS011;53202;50.976;18.216;2023-03-14T04:45:58;27.70;;;6.00;;
57313;SDS011;53202;50.976;18.216;2023-03-14T04:48:25;9.10;;;4.50;;
57313;SDS011;53202;50.976;18.216;2023-03-14T04:50:52;10.60;;;4.50;;
57313;SDS011;53202;50.976;18.216;2023-03-14T04:53:18;11.80;;;5.10;;
57313;SDS011;53202;50.976;18.216;2023-03-14T04:55:48;7.20;;;4.20;;
57313;SDS011;53202;50.976;18.216;2023-03-14T04:58:15;10.90;;;4.40;;
57313;SDS011;53202;50.976;18.216;2023-03-14T05:00:41;7.80;;;4.10;;
57313;SDS011;53202;50.976;18.216;2023-03-14T05:03:07;11.20;;;5.10;;
57313;SDS011;53202;50.976;18.216;2023-03-14T05:05:34;26.20;;;7.60;;
57313;SDS011;53202;50.976;18.216;2023-03-14T05:08:00;6.60;;;3.90;;
57313;SDS011;53202;50.976;18.216;2023-03-14T05:10:26;9.50;;;3.90;;
57313;SDS011;53202;50.976;18.216;2023-03-14T05:12:52;12.50;;;4.00;;
57313;SDS011;53202;50.976;18.216;2023-03-14T05:15:18;8.40;;;3.60;;
57313;SDS011;53202;50.976;18.216;2023-03-14T05:17:44;9.00;;;3.80;;
57313;SDS011;53202;50.976;18.216;2023-03-14T05:20:11;8.30;;;4.60;;
57313;SDS011;53202;50.976;18.216;2023-03-14T05:22:38;8.30;;;4.60;;
57313;SDS011;53202;50.976;18.216;2023-03-14T05:25:05;9.40;;;3.70;;
57313;SDS011;53202;50.976;18.216;2023-03-14T05:27:33;7.60;;;3.60;;
57313;SDS011;53202;50.976;18.216;2023-03-14T05:29:59;10.30;;;4.60;;
57313;SDS011;53202;50.976;18.216;2023-03-14T05:32:26;6.10;;;3.50;;
57313;SDS011;53202;50.976;18.216;2023-03-14T05:34:52;7.90;;;3.50;;
57313;SDS011;53202;50.976;18.216;2023-03-14T05:37:18;11.40;;;5.00;;
57313;SDS011;53202;50.976;18.216;2023-03-14T05:39:44;9.60;;;4.60;;
57313;SDS011;53202;50.976;18.216;2023-03-14T05:42:10;16.00;;;4.80;;
57313;SDS011;53202;50.976;18.216;2023-03-14T05:44:36;10.20;;;4.00;;
57313;SDS011;53202;50.976;18.216;2023-03-14T05:47:02;7.00;;;3.60;;
57313;SDS011;53202;50.976;18.216;2023-03-14T05:49:28;10.00;;;4.10;;
57313;SDS011;53202;50.976;18.216;2023-03-14T05:51:54;9.50;;;3.80;;
57313;SDS011;53202;50.976;18.216;2023-03-14T05:54:20;8.60;;;3.70;;
57313;SDS011;53202;50.976;18.216;2023-03-14T05:56:47;9.10;;;3.80;;
57313;SDS011;53202;50.976;18.216;2023-03-14T05:59:13;11.10;;;4.00;;
57313;SDS011;53202;50.976;18.216;2023-03-14T06:01:40;12.10;;;4.90;;
57313;SDS011;53202;50.976;18.216;2023-03-14T06:04:06;13.10;;;4.80;;
57313;SDS011;53202;50.976;18.216;2023-03-14T06:06:32;11.80;;;4.50;;
57313;SDS011;53202;50.976;18.216;2023-03-14T06:08:58;13.80;;;4.30;;
57313;SDS011;53202;50.976;18.216;2023-03-14T06:11:25;6.90;;;4.00;;
57313;SDS011;53202;50.976;18.216;2023-03-14T06:13:52;10.30;;;3.80;;
57313;SDS011;53202;50.976;18.216;2023-03-14T06:16:18;12.20;;;4.60;;
57313;SDS011;53202;50.976;18.216;2023-03-14T06:18:44;10.50;;;4.70;;
57313;SDS011;53202;50.976;18.216;2023-03-14T06:21:12;11.50;;;5.80;;
57313;SDS011;53202;50.976;18.216;2023-03-14T06:23:38;12.50;;;4.50;;
57313;SDS011;53202;50.976;18.216;2023-03-14T06:26:04;10.90;;;4.60;;
57313;SDS011;53202;50.976;18.216;2023-03-14T06:28:30;12.30;;;4.80;;
57313;SDS011;53202;50.976;18.216;2023-03-14T06:30:57;12.60;;;4.20;;
57313;SDS011;53202;50.976;18.216;2023-03-14T06:33:24;18.70;;;5.10;;
57313;SDS011;53202;50.976;18.216;2023-03-14T06:35:51;11.70;;;4.50;;
57313;SDS011;53202;50.976;18.216;2023-03-14T06:38:17;14.10;;;5.40;;
57313;SDS011;53202;50.976;18.216;2023-03-14T06:40:43;7.80;;;4.20;;
57313;SDS011;53202;50.976;18.216;2023-03-14T06:43:09;14.10;;;5.80;;
57313;SDS011;53202;50.976;18.216;2023-03-14T06:45:35;14.00;;;6.30;;
57313;SDS011;53202;50.976;18.216;2023-03-14T06:48:02;14.60;;;7.70;;
57313;SDS011;53202;50.976;18.216;2023-03-14T06:50:28;20.60;;;8.00;;
57313;SDS011;53202;50.976;18.216;2023-03-14T06:52:54;11.50;;;5.50;;
57313;SDS011;53202;50.976;18.216;2023-03-14T06:55:20;15.40;;;5.70;;
57313;SDS011;53202;50.976;18.216;2023-03-14T06:57:47;15.60;;;5.60;;
57313;SDS011;53202;50.976;18.216;2023-03-14T07:00:13;16.40;;;5.50;;
57313;SDS011;53202;50.976;18.216;2023-03-14T07:02:39;13.30;;;5.10;;
57313;SDS011;53202;50.976;18.216;2023-03-14T07:05:05;12.80;;;4.70;;
57313;SDS011;53202;50.976;18.216;2023-03-14T07:07:32;10.70;;;4.40;;
57313;SDS011;53202;50.976;18.216;2023-03-14T07:09:58;12.90;;;5.30;;
57313;SDS011;53202;50.976;18.216;2023-03-14T07:12:24;12.60;;;4.90;;
57313;SDS011;53202;50.976;18.216;2023-03-14T07:14:52;14.90;;;4.50;;
57313;SDS011;53202;50.976;18.216;2023-03-14T07:17:18;12.20;;;4.60;;
57313;SDS011;53202;50.976;18.216;2023-03-14T07:19:44;10.60;;;5.60;;
57313;SDS011;53202;50.976;18.216;2023-03-14T07:22:11;21.30;;;5.50;;
57313;SDS011;53202;50.976;18.216;2023-03-14T07:24:37;10.70;;;5.20;;
57313;SDS011;53202;50.976;18.216;2023-03-14T07:27:03;8.80;;;4.80;;
57313;SDS011;53202;50.976;18.216;2023-03-14T07:29:29;11.30;;;6.10;;
57313;SDS011;53202;50.976;18.216;2023-03-14T07:31:55;21.30;;;6.20;;
57313;SDS011;53202;50.976;18.216;2023-03-14T07:34:21;20.30;;;7.10;;
57313;SDS011;53202;50.976;18.216;2023-03-14T07:36:47;16.10;;;8.10;;
57313;SDS011;53202;50.976;18.216;2023-03-14T07:39:13;17.20;;;6.00;;
57313;SDS011;53202;50.976;18.216;2023-03-14T07:41:39;15.70;;;7.10;;
57313;SDS011;53202;50.976;18.216;2023-03-14T07:44:05;13.70;;;7.20;;
57313;SDS011;53202;50.976;18.216;2023-03-14T07:46:31;14.10;;;6.40;;
57313;SDS011;53202;50.976;18.216;2023-03-14T07:48:57;15.50;;;6.20;;
57313;SDS011;53202;50.976;18.216;2023-03-14T07:51:23;12.80;;;5.20;;
57313;SDS011;53202;50.976;18.216;2023-03-14T07:53:49;9.40;;;4.90;;
57313;SDS011;53202;50.976;18.216;2023-03-14T07:56:15;13.70;;;4.70;;
57313;SDS011;53202;50.976;18.216;2023-03-14T07:58:41;10.10;;;5.20;;
57313;SDS011;53202;50.976;18.216;2023-03-14T08:01:09;15.00;;;4.70;;
57313;SDS011;53202;50.976;18.216;2023-03-14T08:03:35;13.00;;;5.80;;
57313;SDS011;53202;50.976;18.216;2023-03-14T08:06:01;25.30;;;6.50;;
57313;SDS011;53202;50.976;18.216;2023-03-14T08:08:29;12.60;;;5.30;;
57313;SDS011;53202;50.976;18.216;2023-03-14T08:10:55;18.30;;;6.20;;
57313;SDS011;53202;50.976;18.216;2023-03-14T08:13:21;14.00;;;7.00;;
57313;SDS011;53202;50.976;18.216;2023-03-14T08:15:49;20.40;;;9.40;;
57313;SDS011;53202;50.976;18.216;2023-03-14T08:18:16;15.50;;;7.90;;
57313;SDS011;53202;50.976;18.216;2023-03-14T08:20:42;11.40;;;7.50;;
57313;SDS011;53202;50.976;18.216;2023-03-14T08:23:08;13.20;;;7.30;;
57313;SDS011;53202;50.976;18.216;2023-03-14T08:25:34;11.00;;;5.70;;
57313;SDS011;53202;50.976;18.216;2023-03-14T08:28:00;19.00;;;5.70;;
57313;SDS011;53202;50.976;18.216;2023-03-14T08:30:26;12.70;;;5.00;;
57313;SDS011;53202;50.976;18.216;2023-03-14T08:32:52;12.30;;;5.20;;
57313;SDS011;53202;50.976;18.216;2023-03-14T08:35:19;15.10;;;5.90;;
57313;SDS011;53202;50.976;18.216;2023-03-14T08:37:46;15.50;;;5.10;;
57313;SDS011;53202;50.976;18.216;2023-03-14T08:40:12;18.40;;;5.30;;
57313;SDS011;53202;50.976;18.216;2023-03-14T08:42:39;12.70;;;6.00;;
57313;SDS011;53202;50.976;18.216;2023-03-14T08:45:05;16.30;;;4.40;;
57313;SDS011;53202;50.976;18.216;2023-03-14T08:47:32;9.10;;;4.90;;
57313;SDS011;53202;50.976;18.216;2023-03-14T08:49:58;8.70;;;4.60;;
57313;SDS011;53202;50.976;18.216;2023-03-14T08:52:25;12.50;;;4.70;;
57313;SDS011;53202;50.976;18.216;2023-03-14T08:54:50;11.60;;;5.00;;
57313;SDS011;53202;50.976;18.216;2023-03-14T08:57:17;16.80;;;6.10;;
57313;SDS011;53202;50.976;18.216;2023-03-14T08:59:43;9.30;;;4.60;;
57313;SDS011;53202;50.976;18.216;2023-03-14T09:02:10;19.50;;;5.90;;
57313;SDS011;53202;50.976;18.216;2023-03-14T09:04:37;11.60;;;4.90;;
57313;SDS011;53202;50.976;18.216;2023-03-14T09:07:03;13.30;;;5.90;;
57313;SDS011;53202;50.976;18.216;2023-03-14T09:09:30;20.40;;;8.90;;
57313;SDS011;53202;50.976;18.216;2023-03-14T09:11:56;9.40;;;4.70;;
57313;SDS011;53202;50.976;18.216;2023-03-14T09:14:22;10.10;;;4.60;;
57313;SDS011;53202;50.976;18.216;2023-03-14T09:16:48;14.30;;;5.10;;
57313;SDS011;53202;50.976;18.216;2023-03-14T09:19:16;9.40;;;5.90;;
57313;SDS011;53202;50.976;18.216;2023-03-14T09:21:42;12.10;;;6.00;;
57313;SDS011;53202;50.976;18.216;2023-03-14T09:24:08;15.60;;;6.70;;
57313;SDS011;53202;50.976;18.216;2023-03-14T09:26:34;14.50;;;7.40;;
57313;SDS011;53202;50.976;18.216;2023-03-14T09:29:00;15.30;;;7.50;;
57313;SDS011;53202;50.976;18.216;2023-03-14T09:31:26;18.90;;;6.40;;
57313;SDS011;53202;50.976;18.216;2023-03-14T09:33:53;14.60;;;8.40;;
57313;SDS011;53202;50.976;18.216;2023-03-14T09:36:19;12.80;;;6.70;;
57313;SDS011;53202;50.976;18.216;2023-03-14T09:38:45;16.80;;;7.90;;
57313;SDS011;53202;50.976;18.216;2023-03-14T09:41:14;12.60;;;7.00;;
57313;SDS011;53202;50.976;18.216;2023-03-14T09:43:43;17.90;;;8.40;;
57313;SDS011;53202;50.976;18.216;2023-03-14T09:46:11;15.20;;;7.80;;
57313;SDS011;53202;50.976;18.216;2023-03-14T09:48:37;23.90;;;8.30;;
57313;SDS011;53202;50.976;18.216;2023-03-14T09:51:05;18.40;;;8.10;;
57313;SDS011;53202;50.976;18.216;2023-03-14T09:53:39;25.00;;;7.70;;
57313;SDS011;53202;50.976;18.216;2023-03-14T09:56:11;17.60;;;8.00;;
57313;SDS011;53202;50.976;18.216;2023-03-14T09:58:41;15.40;;;6.30;;
57313;SDS011;53202;50.976;18.216;2023-03-14T10:01:14;14.70;;;7.00;;
57313;SDS011;53202;50.976;18.216;2023-03-14T10:03:42;18.70;;;7.90;;
57313;SDS011;53202;50.976;18.216;2023-03-14T10:06:11;17.20;;;6.80;;
57313;SDS011;53202;50.976;18.216;2023-03-14T10:08:42;20.40;;;10.20;;
57313;SDS011;53202;50.976;18.216;2023-03-14T10:11:16;17.70;;;9.40;;
57313;SDS011;53202;50.976;18.216;2023-03-14T10:13:48;18.50;;;9.10;;
57313;SDS011;53202;50.976;18.216;2023-03-14T10:16:16;19.00;;;9.50;;
57313;SDS011;53202;50.976;18.216;2023-03-14T10:18:45;20.20;;;11.20;;
57313;SDS011;53202;50.976;18.216;2023-03-14T10:24:06;24.00;;;12.30;;
57313;SDS011;53202;50.976;18.216;2023-03-14T10:26:34;19.40;;;12.30;;
57313;SDS011;53202;50.976;18.216;2023-03-14T10:29:08;28.10;;;16.20;;
57313;SDS011;53202;50.976;18.216;2023-03-14T10:34:21;27.20;;;13.60;;
57313;SDS011;53202;50.976;18.216;2023-03-14T10:36:57;32.00;;;16.40;;
57313;SDS011;53202;50.976;18.216;2023-03-14T10:39:27;26.50;;;13.60;;
57313;SDS011;53202;50.976;18.216;2023-03-14T10:42:04;24.10;;;12.30;;
57313;SDS011;53202;50.976;18.216;2023-03-14T10:44:35;37.50;;;16.10;;
57313;SDS011;53202;50.976;18.216;2023-03-14T10:47:02;27.90;;;15.10;;
57313;SDS011;53202;50.976;18.216;2023-03-14T10:49:30;46.80;;;22.70;;
57313;SDS011;53202;50.976;18.216;2023-03-14T10:52:11;35.50;;;18.00;;
57313;SDS011;53202;50.976;18.216;2023-03-14T10:54:40;46.10;;;19.80;;
57313;SDS011;53202;50.976;18.216;2023-03-14T10:57:06;49.40;;;21.30;;
57313;SDS011;53202;50.976;18.216;2023-03-14T10:59:35;29.80;;;16.40;;
57313;SDS011;53202;50.976;18.216;2023-03-14T11:05:06;18.70;;;9.50;;
57313;SDS011;53202;50.976;18.216;2023-03-14T11:12:55;16.50;;;9.50;;
57313;SDS011;53202;50.976;18.216;2023-03-14T11:15:39;21.90;;;11.00;;
57313;SDS011;53202;50.976;18.216;2023-03-14T11:21:16;20.90;;;13.30;;
57313;SDS011;53202;50.976;18.216;2023-03-14T11:24:09;22.40;;;11.20;;
57313;SDS011;53202;50.976;18.216;2023-03-14T11:32:44;31.40;;;17.10;;
57313;SDS011;53202;50.976;18.216;2023-03-14T11:35:18;39.60;;;18.70;;
57313;SDS011;53202;50.976;18.216;2023-03-14T11:37:52;32.50;;;17.90;;
57313;SDS011;53202;50.976;18.216;2023-03-14T11:40:21;31.50;;;14.40;;
57313;SDS011;53202;50.976;18.216;2023-03-14T11:45:38;27.20;;;12.30;;
57313;SDS011;53202;50.976;18.216;2023-03-14T11:48:09;20.80;;;12.10;;
57313;SDS011;53202;50.976;18.216;2023-03-14T11:50:44;19.00;;;11.90;;
57313;SDS011;53202;50.976;18.216;2023-03-14T11:53:16;23.20;;;12.30;;
57313;SDS011;53202;50.976;18.216;2023-03-14T11:55:47;27.70;;;14.10;;
57313;SDS011;53202;50.976;18.216;2023-03-14T11:58:17;18.60;;;12.40;;
57313;SDS011;53202;50.976;18.216;2023-03-14T12:00:53;29.50;;;16.00;;
57313;SDS011;53202;50.976;18.216;2023-03-14T12:03:26;37.10;;;21.50;;
57313;SDS011;53202;50.976;18.216;2023-03-14T12:05:59;63.10;;;33.00;;
57313;SDS011;53202;50.976;18.216;2023-03-14T12:08:45;62.30;;;35.00;;
57313;SDS011;53202;50.976;18.216;2023-03-14T12:11:16;69.70;;;42.50;;
57313;SDS011;53202;50.976;18.216;2023-03-14T12:13:46;44.00;;;26.10;;
57313;SDS011;53202;50.976;18.216;2023-03-14T12:16:38;30.10;;;19.50;;
57313;SDS011;53202;50.976;18.216;2023-03-14T12:24:21;32.70;;;18.10;;
57313;SDS011;53202;50.976;18.216;2023-03-14T12:29:19;28.90;;;16.00;;
57313;SDS011;53202;50.976;18.216;2023-03-14T12:31:46;36.30;;;15.90;;
57313;SDS011;53202;50.976;18.216;2023-03-14T12:34:24;34.60;;;17.90;;
57313;SDS011;53202;50.976;18.216;2023-03-14T12:37:12;27.70;;;18.10;;
57313;SDS011;53202;50.976;18.216;2023-03-14T12:39:49;34.50;;;21.60;;
57313;SDS011;53202;50.976;18.216;2023-03-14T12:45:32;35.10;;;18.60;;
57313;SDS011;53202;50.976;18.216;2023-03-14T12:50:54;31.00;;;17.20;;
57313;SDS011;53202;50.976;18.216;2023-03-14T12:59:30;23.10;;;14.30;;
57313;SDS011;53202;50.976;18.216;2023-03-14T13:05:03;33.60;;;17.10;;
57313;SDS011;53202;50.976;18.216;2023-03-14T13:10:30;24.50;;;15.60;;
57313;SDS011;53202;50.976;18.216;2023-03-14T13:13:15;27.70;;;14.50;;
57313;SDS011;53202;50.976;18.216;2023-03-14T13:15:47;25.50;;;14.60;;
57313;SDS011;53202;50.976;18.216;2023-03-14T13:18:18;21.90;;;14.00;;
57313;SDS011;53202;50.976;18.216;2023-03-14T13:21:02;30.10;;;13.20;;
57313;SDS011;53202;50.976;18.216;2023-03-14T13:23:31;22.80;;;13.40;;
57313;SDS011;53202;50.976;18.216;2023-03-14T13:26:00;21.10;;;13.60;;
57313;SDS011;53202;50.976;18.216;2023-03-14T13:28:27;25.20;;;13.40;;
57313;SDS011;53202;50.976;18.216;2023-03-14T13:30:55;29.40;;;13.40;;
57313;SDS011;53202;50.976;18.216;2023-03-14T13:33:24;23.20;;;14.80;;
57313;SDS011;53202;50.976;18.216;2023-03-14T13:35:55;23.60;;;15.20;;
57313;SDS011;53202;50.976;18.216;2023-03-14T13:38:25;23.40;;;13.10;;
57313;SDS011;53202;50.976;18.216;2023-03-14T13:40:54;30.50;;;16.40;;
57313;SDS011;53202;50.976;18.216;2023-03-14T13:43:29;23.00;;;14.70;;
57313;SDS011;53202;50.976;18.216;2023-03-14T13:46:05;20.00;;;13.00;;
57313;SDS011;53202;50.976;18.216;2023-03-14T13:48:34;20.00;;;13.70;;
57313;SDS011;53202;50.976;18.216;2023-03-14T13:51:05;18.90;;;12.40;;
57313;SDS011;53202;50.976;18.216;2023-03-14T13:53:33;30.60;;;13.90;;
57313;SDS011;53202;50.976;18.216;2023-03-14T13:56:11;21.30;;;13.70;;
57313;SDS011;53202;50.976;18.216;2023-03-14T13:58:39;25.50;;;12.80;;
57313;SDS011;53202;50.976;18.216;2023-03-14T14:01:10;22.90;;;13.30;;
57313;SDS011;53202;50.976;18.216;2023-03-14T14:03:43;36.80;;;23.10;;
57313;SDS011;53202;50.976;18.216;2023-03-14T14:08:56;35.30;;;18.50;;
57313;SDS011;53202;50.976;18.216;2023-03-14T14:11:31;26.90;;;14.40;;
57313;SDS011;53202;50.976;18.216;2023-03-14T14:14:12;26.50;;;13.60;;
57313;SDS011;53202;50.976;18.216;2023-03-14T14:16:41;26.90;;;15.80;;
57313;SDS011;53202;50.976;18.216;2023-03-14T14:19:09;26.80;;;12.10;;
57313;SDS011;53202;50.976;18.216;2023-03-14T14:21:35;27.00;;;14.50;;
57313;SDS011;53202;50.976;18.216;2023-03-14T14:24:01;23.90;;;13.70;;
57313;SDS011;53202;50.976;18.216;2023-03-14T14:26:27;33.80;;;18.40;;
57313;SDS011;53202;50.976;18.216;2023-03-14T14:29:00;23.70;;;14.80;;
57313;SDS011;53202;50.976;18.216;2023-03-14T14:31:28;53.20;;;28.10;;
57313;SDS011;53202;50.976;18.216;2023-03-14T14:33:55;36.90;;;17.80;;
57313;SDS011;53202;50.976;18.216;2023-03-14T14:36:26;27.60;;;13.60;;
57313;SDS011;53202;50.976;18.216;2023-03-14T14:39:00;23.50;;;13.50;;
57313;SDS011;53202;50.976;18.216;2023-03-14T14:41:33;28.90;;;15.50;;
57313;SDS011;53202;50.976;18.216;2023-03-14T14:46:27;25.10;;;14.40;;
57313;SDS011;53202;50.976;18.216;2023-03-14T14:48:57;31.30;;;16.40;;
57313;SDS011;53202;50.976;18.216;2023-03-14T14:51:25;35.70;;;22.30;;
57313;SDS011;53202;50.976;18.216;2023-03-14T14:56:36;49.20;;;26.70;;
57313;SDS011;53202;50.976;18.216;2023-03-14T14:59:02;26.40;;;16.70;;
57313;SDS011;53202;50.976;18.216;2023-03-14T15:01:33;26.90;;;16.70;;
57313;SDS011;53202;50.976;18.216;2023-03-14T15:04:03;28.80;;;17.30;;
57313;SDS011;53202;50.976;18.216;2023-03-14T15:06:36;24.80;;;15.80;;
57313;SDS011;53202;50.976;18.216;2023-03-14T15:09:02;28.00;;;16.00;;
57313;SDS011;53202;50.976;18.216;2023-03-14T15:11:28;31.60;;;17.10;;
57313;SDS011;53202;50.976;18.216;2023-03-14T15:13:54;29.40;;;18.00;;
57313;SDS011;53202;50.976;18.216;2023-03-14T15:16:21;28.20;;;18.00;;
57313;SDS011;53202;50.976;18.216;2023-03-14T15:18:53;27.70;;;17.90;;
57313;SDS011;53202;50.976;18.216;2023-03-14T15:21:21;39.20;;;23.70;;
57313;SDS011;53202;50.976;18.216;2023-03-14T15:23:55;34.60;;;22.00;;
57313;SDS011;53202;50.976;18.216;2023-03-14T15:26:22;39.10;;;22.20;;
57313;SDS011;53202;50.976;18.216;2023-03-14T15:28:49;43.60;;;24.70;;
57313;SDS011;53202;50.976;18.216;2023-03-14T15:31:16;46.50;;;23.60;;
57313;SDS011;53202;50.976;18.216;2023-03-14T15:33:44;47.70;;;24.40;;